Time;durP1;ratioP1;P1;durP2;ratioP2;P2;SDS_P1;SDS_P2;PMS_P1;PMS_P2;Temp;Humidity;BMP_temperature;BMP_pressure;BME280_temperature;BME280_humidity;BME280_pressure;Samples;Min_cycle;Max_cycle;Signal;HPM_P1;HPM_P2
2022/08/23 00:02:12;;;;;;;;;;;;;;;;;;5070977;28;881;-70
2022/08/23 00:04:39;;;;;;;;;;;;;;;;;;5071221;28;1118;-70
2022/08/23 00:07:06;;;;;;;;;;;;;;;;;;5071426;28;1973;-70
2022/08/23 00:09:33;;;;;;;;;;;;;;;;;;5071023;28;1371;-69
2022/08/23 00:12:04;;;;;;;;;;;;;;;;;;5070930;28;1056;-69
2022/08/23 00:14:32;;;;;;;;;;;;;;;;;;5066772;28;1507;-69
2022/08/23 00:16:58;;;;;;;;;;;;;;;;;;5071260;28;1060;-71
2022/08/23 00:19:26;;;;;;;;;;;;;;;;;;5071057;28;1309;-71
2022/08/23 00:21:53;;;;;;;;;;;;;;;;;;5070757;28;933;-70
2022/08/23 00:24:19;;;;;;;;;;;;;;;;;;5071140;28;695;-72
2022/08/23 00:26:53;;;;;;;;;;;;;;;;;;5070747;28;1918;-72
2022/08/23 00:29:20;;;;;;;;;;;;;;;;;;5070868;28;1313;-69
2022/08/23 00:31:46;;;;;;;;;;;;;;;;;;5052850;28;1402;-71
2022/08/23 00:34:12;;;;;;;;;;;;;;;;;;5056843;28;1402;-69
2022/08/23 00:36:40;;;;;;;;;;;;;;;;;;5056800;28;1059;-71
2022/08/23 00:39:06;;;;;;;;;;;;;;;;;;5056736;28;1584;-71
2022/08/23 00:41:32;;;;;;;;;;;;;;;;;;5074179;28;1332;-70
2022/08/23 00:49:28;;;;;;;;;;;;;;;;;;5056629;28;1331;-72
2022/08/23 00:51:57;;;;;;;;;;;;;;;;;;5074117;28;1063;-72
2022/08/23 00:54:24;;;;;;;;;;;;;;;;;;5074506;28;1076;-72
2022/08/23 00:56:51;;;;;;;;;;;;;;;;;;5074579;28;825;-72
2022/08/23 00:59:17;;;;;;;;;;;;;;;;;;5056692;28;1319;-71
2022/08/23 01:01:43;;;;;;;;;;;;;;;;;;5056122;28;1508;-72
2022/08/23 01:04:11;;;;;;;;;;;;;;;;;;5074415;28;935;-71
2022/08/23 01:06:38;;;;;;;;;;;;;;;;;;5056153;28;1975;-71
2022/08/23 01:09:06;;;;;;;;;;;;;;;;;;5056294;28;1259;-71
2022/08/23 01:11:34;;;;;;;;;;;;;;;;;;5055812;28;1424;-72
2022/08/23 01:14:02;;;;;;;;;;;;;;;;;;5074077;28;1079;-71
2022/08/23 01:16:32;;;;;;;;;;;;;;;;;;5055818;28;1024;-72
2022/08/23 01:18:58;;;;;;;;;;;;;;;;;;5074274;28;708;-72
2022/08/23 01:21:25;;;;;;;;;;;;;;;;;;5055673;28;1327;-70
2022/08/23 01:23:53;;;;;;;;;;;;;;;;;;5073890;28;900;-72
2022/08/23 01:26:20;;;;;;;;;;;;;;;;;;5055970;28;1918;-71
2022/08/23 01:28:46;;;;;;;;;;;;;;;;;;5073803;28;840;-70
2022/08/23 01:31:13;;;;;;;;;;;;;;;;;;5055486;28;1388;-72
2022/08/23 01:33:39;;;;;;;;;;;;;;;;;;5055429;28;1435;-71
2022/08/23 01:36:06;;;;;;;;;;;;;;;;;;5073984;28;786;-70
2022/08/23 01:38:33;;;;;;;;;;;;;;;;;;5055562;28;1464;-71
2022/08/23 01:41:01;;;;;;;;;;;;;;;;;;5055563;28;1387;-71
2022/08/23 01:43:27;;;;;;;;;;;;;;;;;;5055290;28;1311;-72
2022/08/23 01:45:55;;;;;;;;;;;;;;;;;;5055353;28;1354;-72
2022/08/23 01:48:23;;;;;;;;;;;;;;;;;;5055509;28;1977;-71
2022/08/23 01:50:50;;;;;;;;;;;;;;;;;;5055309;28;1414;-71
2022/08/23 01:53:16;;;;;;;;;;;;;;;;;;5055481;28;1868;-72
2022/08/23 01:55:47;;;;;;;;;;;;;;;;;;5055427;28;1601;-71
2022/08/23 01:58:16;;;;;;;;;;;;;;;;;;5055398;28;1290;-71
2022/08/23 02:00:43;;;;;;;;;;;;;;;;;;5055172;28;1478;-71
2022/08/23 02:03:12;;;;;;;;;;;;;;;;;;5072940;28;814;-70
2022/08/23 02:05:38;;;;;;;;;;;;;;;;;;5073081;28;1040;-71
2022/08/23 02:10:48;;;;;;;;;;;;;;;;;;5034273;28;1465;-70
2022/08/23 02:13:16;;;;;;;;;;;;;;;;;;5034951;28;1217;-72
2022/08/23 02:15:43;;;;;;;;;;;;;;;;;;5034859;28;1485;-71
2022/08/23 02:18:10;;;;;;;;;;;;;;;;;;5053034;28;1052;-71
2022/08/23 02:20:36;;;;;;;;;;;;;;;;;;5034816;28;1396;-72
2022/08/23 02:23:03;;;;;;;;;;;;;;;;;;5034796;28;1187;-71
2022/08/23 02:25:29;;;;;;;;;;;;;;;;;;5034844;28;996;-70
2022/08/23 02:27:55;;;;;;;;;;;;;;;;;;5052529;28;1918;-72
2022/08/23 02:30:22;;;;;;;;;;;;;;;;;;5052564;28;1415;-73
2022/08/23 02:32:49;;;;;;;;;;;;;;;;;;5034513;28;1182;-71
2022/08/23 02:35:16;;;;;;;;;;;;;;;;;;5035029;28;1297;-71
2022/08/23 02:37:42;;;;;;;;;;;;;;;;;;5034733;28;1271;-72
2022/08/23 02:40:09;;;;;;;;;;;;;;;;;;5034636;28;1362;-71
2022/08/23 02:42:35;;;;;;;;;;;;;;;;;;5034436;28;1389;-71
2022/08/23 02:45:02;;;;;;;;;;;;;;;;;;5034482;28;1247;-71
2022/08/23 02:47:31;;;;;;;;;;;;;;;;;;5034376;28;1914;-69
2022/08/23 02:50:16;;;;;;;;;;;;;;;;;;5034518;28;1401;-71
2022/08/23 02:52:42;;;;;;;;;;;;;;;;;;5034131;28;1438;-71
2022/08/23 02:55:08;;;;;;;;;;;;;;;;;;5033925;28;1156;-71
2022/08/23 02:57:35;;;;;;;;;;;;;;;;;;5034167;28;1321;-71
2022/08/23 03:00:04;;;;;;;;;;;;;;;;;;5034435;28;1417;-70
2022/08/23 03:02:32;;;;;;;;;;;;;;;;;;5033835;28;1316;-71
2022/08/23 03:04:58;;;;;;;;;;;;;;;;;;5034226;28;1676;-69
2022/08/23 03:07:25;;;;;;;;;;;;;;;;;;5034256;28;1910;-71
2022/08/23 03:09:51;;;;;;;;;;;;;;;;;;5033950;28;1305;-71
2022/08/23 03:12:17;;;;;;;;;;;;;;;;;;5033799;28;1068;-70
2022/08/23 03:14:50;;;;;;;;;;;;;;;;;;5033879;28;1191;-71
2022/08/23 03:17:17;;;;;;;;;;;;;;;;;;5034220;28;1108;-71
2022/08/23 03:19:44;;;;;;;;;;;;;;;;;;5033892;28;1369;-71
2022/08/23 03:22:10;;;;;;;;;;;;;;;;;;5033679;28;1217;-71
2022/08/23 03:24:37;;;;;;;;;;;;;;;;;;5033776;28;1343;-71
2022/08/23 03:27:04;;;;;;;;;;;;;;;;;;5033828;28;1914;-71
2022/08/23 03:29:31;;;;;;;;;;;;;;;;;;5033647;28;1555;-71
2022/08/23 03:32:02;;;;;;;;;;;;;;;;;;5051288;28;882;-71
2022/08/23 03:34:32;;;;;;;;;;;;;;;;;;5033857;28;996;-69
2022/08/23 03:37:00;;;;;;;;;;;;;;;;;;5051596;28;767;-71
2022/08/23 03:39:26;;;;;;;;;;;;;;;;;;5051587;28;1431;-70
2022/08/23 03:41:54;;;;;;;;;;;;;;;;;;5033502;28;1293;-72
2022/08/23 03:44:20;;;;;;;;;;;;;;;;;;5033860;28;1358;-71
2022/08/23 03:46:49;;;;;;;;;;;;;;;;;;5045258;28;2488;-71
2022/08/23 03:49:15;;;;;;;;;;;;;;;;;;5053505;28;1321;-71
2022/08/23 03:51:50;;;;;;;;;;;;;;;;;;5053142;28;1191;-71
2022/08/23 03:54:18;;;;;;;;;;;;;;;;;;5071286;28;1059;-71
2022/08/23 03:56:51;;;;;;;;;;;;;;;;;;5053245;28;1324;-72
2022/08/23 03:59:18;;;;;;;;;;;;;;;;;;5071347;28;1312;-70
2022/08/23 04:01:44;;;;;;;;;;;;;;;;;;5052846;28;1416;-70
2022/08/23 04:04:10;;;;;;;;;;;;;;;;;;5053546;28;1247;-70
2022/08/23 04:06:48;;;;;;;;;;;;;;;;;;5053799;28;1971;-71
2022/08/23 04:09:14;;;;;;;;;;;;;;;;;;5057409;28;1324;-71
2022/08/23 04:11:42;;;;;;;;;;;;;;;;;;5056950;28;1498;-71
2022/08/23 04:14:08;;;;;;;;;;;;;;;;;;5057389;28;1464;-70
2022/08/23 04:16:36;;;;;;;;;;;;;;;;;;5056270;28;1475;-71
2022/08/23 04:19:03;;;;;;;;;;;;;;;;;;5059381;28;1468;-71
2022/08/23 04:21:30;;;;;;;;;;;;;;;;;;5056852;28;1549;-70
2022/08/23 04:23:57;;;;;;;;;;;;;;;;;;5057174;28;1377;-71
2022/08/23 04:26:24;;;;;;;;;;;;;;;;;;5057117;28;1250;-71
2022/08/23 04:28:51;;;;;;;;;;;;;;;;;;5057769;28;1922;-71
2022/08/23 04:31:18;;;;;;;;;;;;;;;;;;5070943;22;4129;-78
2022/08/23 04:33:47;;;;;;;;;;;;;;;;;;5079850;28;1422;-77
2022/08/23 04:36:15;;;;;;;;;;;;;;;;;;5089286;28;1458;-76
2022/08/23 04:38:41;;;;;;;;;;;;;;;;;;5076926;28;1433;-76
2022/08/23 04:44:00;;;;;;;;;;;;;;;;;;5076401;28;1494;-75
2022/08/23 04:46:27;;;;;;;;;;;;;;;;;;5068194;28;1127;-76
2022/08/23 04:48:57;;;;;;;;;;;;;;;;;;5092530;28;1914;-76
2022/08/23 04:51:23;;;;;;;;;;;;;;;;;;5080715;28;1429;-76
2022/08/23 04:53:49;;;;;;;;;;;;;;;;;;5067393;28;1472;-75
2022/08/23 04:56:38;;;;;;;;;;;;;;;;;;5066225;28;1336;-77
2022/08/23 04:59:07;;;;;;;;;;;;;;;;;;5071219;28;1363;-76
2022/08/23 05:01:35;;;;;;;;;;;;;;;;;;5054020;28;1698;-77
2022/08/23 05:04:01;;;;;;;;;;;;;;;;;;5072517;28;799;-76
2022/08/23 05:06:28;;;;;;;;;;;;;;;;;;5071082;28;1416;-76
2022/08/23 05:08:54;;;;;;;;;;;;;;;;;;5057131;28;1914;-76
2022/08/23 05:11:21;;;;;;;;;;;;;;;;;;5058625;28;1496;-75
2022/08/23 05:13:48;;;;;;;;;;;;;;;;;;5078894;28;1129;-75
2022/08/23 05:16:16;;;;;;;;;;;;;;;;;;5070915;28;1391;-77
2022/08/23 05:18:54;;;;;;;;;;;;;;;;;;5079994;28;1160;-76
2022/08/23 05:21:21;;;;;;;;;;;;;;;;;;5048970;28;1451;-75
2022/08/23 05:23:47;;;;;;;;;;;;;;;;;;5046930;28;1340;-75
2022/08/23 05:26:18;;;;;;;;;;;;;;;;;;5092921;28;1195;-76
2022/08/23 05:28:46;;;;;;;;;;;;;;;;;;5076406;28;1979;-76
2022/08/23 05:31:16;;;;;;;;;;;;;;;;;;5085552;28;1851;-76
2022/08/23 05:33:46;;;;;;;;;;;;;;;;;;5066885;28;1493;-75
2022/08/23 05:36:17;;;;;;;;;;;;;;;;;;5081986;28;1451;-75
2022/08/23 05:38:44;;;;;;;;;;;;;;;;;;5084690;28;1538;-76
2022/08/23 05:41:11;;;;;;;;;;;;;;;;;;5073860;28;1442;-75
2022/08/23 05:43:38;;;;;;;;;;;;;;;;;;5075457;28;1360;-76
2022/08/23 05:46:05;;;;;;;;;;;;;;;;;;5075551;28;1171;-76
2022/08/23 05:48:37;;;;;;;;;;;;;;;;;;5093168;28;1977;-76
2022/08/23 05:51:10;;;;;;;;;;;;;;;;;;5061645;28;1438;-76
2022/08/23 05:53:36;;;;;;;;;;;;;;;;;;5073162;28;976;-77
2022/08/23 05:56:08;;;;;;;;;;;;;;;;;;5059674;28;1431;-77
2022/08/23 05:58:34;;;;;;;;;;;;;;;;;;5078057;28;1226;-77
2022/08/23 06:01:00;;;;;;;;;;;;;;;;;;5079311;28;1333;-77
2022/08/23 06:03:27;;;;;;;;;;;;;;;;;;5059203;28;1548;-77
2022/08/23 06:05:57;;;;;;;;;;;;;;;;;;5081818;28;1695;-78
2022/08/23 06:08:24;;;;;;;;;;;;;;;;;;5092841;28;1917;-79
2022/08/23 06:10:54;;;;;;;;;;;;;;;;;;5074411;28;1513;-77
2022/08/23 06:13:25;;;;;;;;;;;;;;;;;;5071271;28;1368;-77
2022/08/23 06:15:52;;;;;;;;;;;;;;;;;;5063821;28;1500;-78
2022/08/23 06:18:19;;;;;;;;;;;;;;;;;;5074707;28;1479;-77
2022/08/23 06:20:46;;;;;;;;;;;;;;;;;;5080369;28;1436;-78
2022/08/23 06:23:20;;;;;;;;;;;;;;;;;;5054591;28;1224;-77
2022/08/23 06:25:47;;;;;;;;;;;;;;;;;;5061677;28;1443;-77
2022/08/23 06:28:15;;;;;;;;;;;;;;;;;;5055154;28;1914;-78
2022/08/23 06:30:41;;;;;;;;;;;;;;;;;;5056979;28;1590;-78
2022/08/23 06:33:16;;;;;;;;;;;;;;;;;;5069810;28;1431;-76
2022/08/23 06:35:45;;;;;;;;;;;;;;;;;;5088142;28;1162;-77
2022/08/23 06:38:18;;;;;;;;;;;;;;;;;;5055046;28;1479;-76
2022/08/23 06:40:50;;;;;;;;;;;;;;;;;;5070506;28;1707;-77
2022/08/23 06:43:27;;;;;;;;;;;;;;;;;;5092031;28;1649;-76
2022/08/23 06:46:09;;;;;;;;;;;;;;;;;;5071174;28;1343;-77
2022/08/23 06:48:35;;;;;;;;;;;;;;;;;;5069410;28;1918;-76
2022/08/23 06:51:02;;;;;;;;;;;;;;;;;;5073026;28;1369;-75
2022/08/23 06:53:48;;;;;;;;;;;;;;;;;;5078767;28;1394;-77
2022/08/23 06:56:41;;;;;;;;;;;;;;;;;;5054524;28;1441;-78
2022/08/23 06:59:12;;;;;;;;;;;;;;;;;;5062510;28;1643;-77
2022/08/23 07:01:52;;;;;;;;;;;;;;;;;;5073636;28;1419;-77
2022/08/23 07:04:35;;;;;;;;;;;;;;;;;;5074475;28;1646;-77
2022/08/23 07:07:19;;;;;;;;;;;;;;;;;;5079048;28;1380;-77
2022/08/23 07:09:46;;;;;;;;;;;;;;;;;;5072903;28;1984;-76
2022/08/23 07:12:14;;;;;;;;;;;;;;;;;;5090668;28;1320;-77
2022/08/23 07:14:43;;;;;;;;;;;;;;;;;;5091317;28;1422;-78
2022/08/23 07:17:10;;;;;;;;;;;;;;;;;;5090662;28;1610;-77
2022/08/23 07:19:36;;;;;;;;;;;;;;;;;;5062986;28;1144;-76
2022/08/23 07:22:03;;;;;;;;;;;;;;;;;;5056351;28;1503;-76
2022/08/23 07:24:30;;;;;;;;;;;;;;;;;;5054028;28;1580;-77
2022/08/23 07:26:57;;;;;;;;;;;;;;;;;;5066231;28;1518;-77
2022/08/23 07:29:25;;;;;;;;;;;;;;;;;;5070436;28;1914;-78
2022/08/23 07:31:52;;;;;;;;;;;;;;;;;;5053457;28;1673;-77
2022/08/23 07:34:18;;;;;;;;;;;;;;;;;;5068753;28;1563;-77
2022/08/23 07:36:45;;;;;;;;;;;;;;;;;;5067542;28;1586;-77
2022/08/23 07:39:11;;;;;;;;;;;;;;;;;;5070085;28;1420;-76
2022/08/23 07:41:38;;;;;;;;;;;;;;;;;;5089049;28;1509;-76
2022/08/23 07:44:05;;;;;;;;;;;;;;;;;;5088036;28;1446;-77
2022/08/23 07:46:33;;;;;;;;;;;;;;;;;;5084365;28;1569;-76
2022/08/23 07:49:01;;;;;;;;;;;;;;;;;;5092364;28;1918;-79
2022/08/23 07:51:34;;;;;;;;;;;;;;;;;;5076955;28;1504;-77
2022/08/23 07:54:00;;;;;;;;;;;;;;;;;;5076479;28;2323;-77
2022/08/23 07:56:27;;;;;;;;;;;;;;;;;;5073628;28;1337;-75
2022/08/23 07:59:19;;;;;;;;;;;;;;;;;;5100065;28;1332;-76
2022/08/23 08:02:10;;;;;;;;;;;;;;;;;;5060905;28;1691;-76
2022/08/23 08:04:36;;;;;;;;;;;;;;;;;;5069043;28;1423;-76
2022/08/23 08:07:04;;;;;;;;;;;;;;;;;;5071973;28;1505;-77
2022/08/23 08:09:32;;;;;;;;;;;;;;;;;;5053625;28;1910;-76
2022/08/23 08:11:58;;;;;;;;;;;;;;;;;;5071358;28;1343;-75
2022/08/23 08:14:27;;;;;;;;;;;;;;;;;;5055133;28;1661;-77
2022/08/23 08:16:57;;;;;;;;;;;;;;;;;;5064434;28;1458;-76
2022/08/23 08:19:48;;;;;;;;;;;;;;;;;;5090125;28;1214;-76
2022/08/23 08:22:46;;;;;;;;;;;;;;;;;;5066816;28;1482;-77
2022/08/23 08:25:32;;;;;;;;;;;;;;;;;;5057587;28;1161;-76
2022/08/23 08:27:59;;;;;;;;;;;;;;;;;;5083374;28;1658;-76
2022/08/23 08:30:25;;;;;;;;;;;;;;;;;;5067687;28;2280;-77
2022/08/23 08:32:51;;;;;;;;;;;;;;;;;;5065524;28;1467;-77
2022/08/23 08:35:20;;;;;;;;;;;;;;;;;;5072735;28;1310;-77
2022/08/23 08:37:47;;;;;;;;;;;;;;;;;;5073206;28;1183;-78
2022/08/23 08:40:13;;;;;;;;;;;;;;;;;;5072967;28;1195;-78
2022/08/23 08:42:43;;;;;;;;;;;;;;;;;;5072462;28;1455;-78
2022/08/23 08:45:10;;;;;;;;;;;;;;;;;;5073202;28;1271;-79
2022/08/23 08:47:40;;;;;;;;;;;;;;;;;;5066942;28;1412;-77
2022/08/23 08:50:08;;;;;;;;;;;;;;;;;;5085947;28;1959;-77
2022/08/23 08:52:36;;;;;;;;;;;;;;;;;;5081575;28;1492;-77
2022/08/23 08:55:09;;;;;;;;;;;;;;;;;;5077811;28;1407;-76
2022/08/23 08:57:37;;;;;;;;;;;;;;;;;;5076536;28;1427;-77
2022/08/23 09:00:04;;;;;;;;;;;;;;;;;;5064909;28;1507;-77
2022/08/23 09:02:33;;;;;;;;;;;;;;;;;;5060103;28;1395;-77
2022/08/23 09:05:07;;;;;;;;;;;;;;;;;;5074275;28;1103;-77
2022/08/23 09:07:37;;;;;;;;;;;;;;;;;;5076655;28;1483;-77
2022/08/23 09:10:07;;;;;;;;;;;;;;;;;;5076494;28;1922;-78
2022/08/23 09:12:41;;;;;;;;;;;;;;;;;;5076334;28;1352;-77
2022/08/23 09:15:15;;;;;;;;;;;;;;;;;;5066630;28;1412;-77
2022/08/23 09:17:44;;;;;;;;;;;;;;;;;;5084595;28;1399;-77
2022/08/23 09:20:12;;;;;;;;;;;;;;;;;;5089459;28;1071;-77
2022/08/23 09:22:40;;;;;;;;;;;;;;;;;;5054632;28;1516;-77
2022/08/23 09:25:16;;;;;;;;;;;;;;;;;;5059180;28;1281;-77
2022/08/23 09:27:53;;;;;;;;;;;;;;;;;;5093109;28;1331;-77
2022/08/23 09:30:21;;;;;;;;;;;;;;;;;;5093175;28;1914;-77
2022/08/23 09:32:49;;;;;;;;;;;;;;;;;;5087762;28;1741;-78
2022/08/23 09:35:17;;;;;;;;;;;;;;;;;;5076533;28;978;-76
2022/08/23 09:37:52;;;;;;;;;;;;;;;;;;5076189;28;1447;-77
2022/08/23 09:40:19;;;;;;;;;;;;;;;;;;5080152;28;1629;-78
2022/08/23 09:42:46;;;;;;;;;;;;;;;;;;5092393;28;1407;-77
2022/08/23 09:45:25;;;;;;;;;;;;;;;;;;5093000;28;1329;-76
2022/08/23 09:47:51;;;;;;;;;;;;;;;;;;5082122;28;1609;-76
2022/08/23 09:50:24;;;;;;;;;;;;;;;;;;5069071;28;1980;-76
2022/08/23 09:52:53;;;;;;;;;;;;;;;;;;5070368;28;1491;-76
2022/08/23 09:55:26;;;;;;;;;;;;;;;;;;5055112;28;1154;-77
2022/08/23 09:57:52;;;;;;;;;;;;;;;;;;5064491;28;1397;-77
2022/08/23 10:00:22;;;;;;;;;;;;;;;;;;5066569;28;1479;-77
2022/08/23 10:02:56;;;;;;;;;;;;;;;;;;5091378;28;1549;-76
2022/08/23 10:05:30;;;;;;;;;;;;;;;;;;5079178;28;1585;-77
2022/08/23 10:07:59;;;;;;;;;;;;;;;;;;5055193;28;1320;-78
2022/08/23 10:10:27;;;;;;;;;;;;;;;;;;5081209;28;1918;-77
2022/08/23 10:12:58;;;;;;;;;;;;;;;;;;5074149;28;1478;-77
2022/08/23 10:15:26;;;;;;;;;;;;;;;;;;5074202;28;1534;-78
2022/08/23 10:17:53;;;;;;;;;;;;;;;;;;5075013;28;1397;-76
2022/08/23 10:20:24;;;;;;;;;;;;;;;;;;5055303;28;1496;-76
2022/08/23 10:22:51;;;;;;;;;;;;;;;;;;5054674;28;1398;-76
2022/08/23 10:25:29;;;;;;;;;;;;;;;;;;5069650;28;1188;-77
2022/08/23 10:30:49;;;;;;;;;;;;;;;;;;5066624;28;1930;-78
2022/08/23 10:33:17;;;;;;;;;;;;;;;;;;5063452;28;1433;-77
2022/08/23 10:35:49;;;;;;;;;;;;;;;;;;5062935;28;1453;-76
2022/08/23 10:38:25;;;;;;;;;;;;;;;;;;5087661;22;3823;-76
2022/08/23 10:40:58;;;;;;;;;;;;;;;;;;5072377;28;1487;-76
2022/08/23 10:43:26;;;;;;;;;;;;;;;;;;5057700;28;1459;-76
2022/08/23 10:45:53;;;;;;;;;;;;;;;;;;5059327;28;1310;-77
2022/08/23 10:48:32;;;;;;;;;;;;;;;;;;5071122;28;1335;-77
2022/08/23 10:50:59;;;;;;;;;;;;;;;;;;5070989;28;1981;-76
2022/08/23 10:53:29;;;;;;;;;;;;;;;;;;5070707;28;1380;-77
2022/08/23 10:56:03;;;;;;;;;;;;;;;;;;5071208;28;1197;-77
2022/08/23 10:58:35;;;;;;;;;;;;;;;;;;5066195;28;1696;-77
2022/08/23 11:01:03;;;;;;;;;;;;;;;;;;5072325;28;1053;-77
2022/08/23 11:03:29;;;;;;;;;;;;;;;;;;5070797;28;1138;-77
2022/08/23 11:06:23;;;;;;;;;;;;;;;;;;5070982;28;1219;-77
2022/08/23 11:08:56;;;;;;;;;;;;;;;;;;5070696;28;1462;-77
2022/08/23 11:11:36;;;;;;;;;;;;;;;;;;5069784;28;1921;-77
2022/08/23 11:14:03;;;;;;;;;;;;;;;;;;5071906;28;1052;-77
2022/08/23 11:16:30;;;;;;;;;;;;;;;;;;5070272;28;1261;-77
2022/08/23 11:18:56;;;;;;;;;;;;;;;;;;5070285;28;1336;-77
2022/08/23 11:21:43;;;;;;;;;;;;;;;;;;5070406;28;1353;-77
2022/08/23 11:24:25;;;;;;;;;;;;;;;;;;5070395;28;1316;-77
2022/08/23 11:27:04;;;;;;;;;;;;;;;;;;5051435;28;1388;-76
2022/08/23 11:29:31;;;;;;;;;;;;;;;;;;5058388;28;1989;-77
2022/08/23 11:32:21;;;;;;;;;;;;;;;;;;5070746;28;1513;-76
2022/08/23 11:34:49;;;;;;;;;;;;;;;;;;5046937;28;1542;-77
2022/08/23 11:37:27;;;;;;;;;;;;;;;;;;5061918;28;1362;-77
2022/08/23 11:40:01;;;;;;;;;;;;;;;;;;5059002;28;1460;-76
2022/08/23 11:42:46;;;;;;;;;;;;;;;;;;5059186;28;1561;-77
2022/08/23 11:45:20;;;;;;;;;;;;;;;;;;5053998;28;1424;-76
2022/08/23 11:47:50;;;;;;;;;;;;;;;;;;5058051;28;1202;-77
2022/08/23 11:50:21;;;;;;;;;;;;;;;;;;5072235;28;2003;-77
2022/08/23 11:52:57;;;;;;;;;;;;;;;;;;5071501;28;774;-77
2022/08/23 11:55:24;;;;;;;;;;;;;;;;;;5071028;28;1119;-76
2022/08/23 11:57:56;;;;;;;;;;;;;;;;;;5070656;28;1453;-76
2022/08/23 12:00:23;;;;;;;;;;;;;;;;;;5060973;28;1603;-76
2022/08/23 12:03:00;;;;;;;;;;;;;;;;;;5071169;28;1114;-77
2022/08/23 12:05:32;;;;;;;;;;;;;;;;;;5053244;28;1592;-76
2022/08/23 12:08:20;;;;;;;;;;;;;;;;;;5071344;28;1387;-77
2022/08/23 12:10:58;;;;;;;;;;;;;;;;;;5070918;28;1973;-77
2022/08/23 12:13:46;;;;;;;;;;;;;;;;;;5052957;28;834;-77
2022/08/23 12:16:27;;;;;;;;;;;;;;;;;;5055283;28;1467;-77
2022/08/23 12:18:56;;;;;;;;;;;;;;;;;;5068419;28;1583;-77
2022/08/23 12:21:23;;;;;;;;;;;;;;;;;;5070705;28;814;-77
2022/08/23 12:23:50;;;;;;;;;;;;;;;;;;5071158;28;929;-77
2022/08/23 12:26:21;;;;;;;;;;;;;;;;;;5069740;28;1530;-77
2022/08/23 12:28:49;;;;;;;;;;;;;;;;;;5070300;28;1393;-76
2022/08/23 12:31:16;;;;;;;;;;;;;;;;;;5052841;28;1922;-75
2022/08/23 12:33:45;;;;;;;;;;;;;;;;;;5073950;28;1418;-77
2022/08/23 12:36:13;;;;;;;;;;;;;;;;;;5074779;28;945;-77
2022/08/23 12:38:42;;;;;;;;;;;;;;;;;;5074705;28;1377;-77
2022/08/23 12:41:13;;;;;;;;;;;;;;;;;;5074554;28;1075;-78
2022/08/23 12:43:39;;;;;;;;;;;;;;;;;;5074686;28;798;-77
2022/08/23 12:46:07;;;;;;;;;;;;;;;;;;5073036;28;1442;-77
2022/08/23 12:48:33;;;;;;;;;;;;;;;;;;5064988;28;1634;-77
2022/08/23 12:51:00;;;;;;;;;;;;;;;;;;5072910;28;1984;-77
2022/08/23 12:53:27;;;;;;;;;;;;;;;;;;5072712;28;1663;-76
2022/08/23 12:55:58;;;;;;;;;;;;;;;;;;5074393;28;1394;-76
2022/08/23 12:58:26;;;;;;;;;;;;;;;;;;5071447;28;1539;-76
2022/08/23 13:00:53;;;;;;;;;;;;;;;;;;5056592;28;1617;-76
2022/08/23 13:03:21;;;;;;;;;;;;;;;;;;5072492;28;1398;-77
2022/08/23 13:05:48;;;;;;;;;;;;;;;;;;5073289;28;1431;-77
2022/08/23 13:08:15;;;;;;;;;;;;;;;;;;5074014;28;1395;-77
2022/08/23 13:10:42;;;;;;;;;;;;;;;;;;5074114;28;1985;-77
2022/08/23 13:13:09;;;;;;;;;;;;;;;;;;5074059;28;1071;-77
2022/08/23 13:15:39;;;;;;;;;;;;;;;;;;5065068;28;1399;-76
2022/08/23 13:18:05;;;;;;;;;;;;;;;;;;5063390;28;1342;-76
2022/08/23 13:20:33;;;;;;;;;;;;;;;;;;5070373;28;1497;-77
2022/08/23 13:23:01;;;;;;;;;;;;;;;;;;5060389;28;1061;-76
2022/08/23 13:25:27;;;;;;;;;;;;;;;;;;5073417;28;1431;-77
2022/08/23 13:27:55;;;;;;;;;;;;;;;;;;5065542;28;1586;-76
2022/08/23 13:30:22;;;;;;;;;;;;;;;;;;5067344;28;1921;-75
2022/08/23 13:32:49;;;;;;;;;;;;;;;;;;5073357;28;1471;-76
2022/08/23 13:35:26;;;;;;;;;;;;;;;;;;5066724;28;1378;-76
2022/08/23 13:37:54;;;;;;;;;;;;;;;;;;5063701;28;1412;-76
2022/08/23 13:40:21;;;;;;;;;;;;;;;;;;5064931;28;1123;-76
2022/08/23 13:42:48;;;;;;;;;;;;;;;;;;5072308;28;1416;-76
2022/08/23 13:45:15;;;;;;;;;;;;;;;;;;5070088;28;1331;-76
2022/08/23 13:47:44;;;;;;;;;;;;;;;;;;5064660;28;1271;-76
2022/08/23 13:50:25;;;;;;;;;;;;;;;;;;5073074;28;1910;-76
2022/08/23 13:52:51;;;;;;;;;;;;;;;;;;5054405;28;1494;-76
2022/08/23 13:55:18;;;;;;;;;;;;;;;;;;5051698;28;1175;-76
2022/08/23 13:57:45;;;;;;;;;;;;;;;;;;5047283;28;1168;-76
2022/08/23 14:00:11;;;;;;;;;;;;;;;;;;5073336;28;1274;-75
2022/08/23 14:02:37;;;;;;;;;;;;;;;;;;5072855;28;1056;-76
2022/08/23 14:05:04;;;;;;;;;;;;;;;;;;5054233;28;1486;-75
2022/08/23 14:07:30;;;;;;;;;;;;;;;;;;5053210;28;1106;-76
2022/08/23 14:09:57;;;;;;;;;;;;;;;;;;5072154;28;1396;-75
2022/08/23 14:12:25;;;;;;;;;;;;;;;;;;5058990;28;1981;-75
2022/08/23 14:14:51;;;;;;;;;;;;;;;;;;5067995;28;1072;-76
2022/08/23 14:17:17;;;;;;;;;;;;;;;;;;5060078;28;1076;-76
2022/08/23 14:19:45;;;;;;;;;;;;;;;;;;5059647;28;1443;-76
2022/08/23 14:22:11;;;;;;;;;;;;;;;;;;5071697;28;1445;-75
2022/08/23 14:24:38;;;;;;;;;;;;;;;;;;5068367;28;1472;-76
2022/08/23 14:27:04;;;;;;;;;;;;;;;;;;5061118;28;1968;-75
2022/08/23 14:29:31;;;;;;;;;;;;;;;;;;5048557;28;1510;-76
2022/08/23 14:31:58;;;;;;;;;;;;;;;;;;5053776;28;1918;-75
2022/08/23 14:34:25;;;;;;;;;;;;;;;;;;5066872;28;2050;-76
2022/08/23 14:36:52;;;;;;;;;;;;;;;;;;5070608;28;1427;-76
2022/08/23 14:39:18;;;;;;;;;;;;;;;;;;5062375;28;1621;-76
2022/08/23 14:41:45;;;;;;;;;;;;;;;;;;5055957;28;1505;-76
2022/08/23 14:44:12;;;;;;;;;;;;;;;;;;5057095;28;1379;-76
2022/08/23 14:46:40;;;;;;;;;;;;;;;;;;5066992;28;1387;-76
2022/08/23 14:49:06;;;;;;;;;;;;;;;;;;5060673;28;1355;-76
2022/08/23 14:51:32;;;;;;;;;;;;;;;;;;5067595;28;1922;-76
2022/08/23 14:53:59;;;;;;;;;;;;;;;;;;5068803;28;1212;-76
2022/08/23 14:56:25;;;;;;;;;;;;;;;;;;5044756;28;1221;-76
2022/08/23 14:58:52;;;;;;;;;;;;;;;;;;5061307;28;1494;-76
2022/08/23 15:01:18;;;;;;;;;;;;;;;;;;5063670;28;1443;-74
2022/08/23 15:03:45;;;;;;;;;;;;;;;;;;5071566;28;1395;-75
2022/08/23 15:06:12;;;;;;;;;;;;;;;;;;5071233;28;1439;-75
2022/08/23 15:08:38;;;;;;;;;;;;;;;;;;5070149;28;1565;-76
2022/08/23 15:11:06;;;;;;;;;;;;;;;;;;5048272;28;1914;-76
2022/08/23 15:13:32;;;;;;;;;;;;;;;;;;5070656;28;1359;-76
2022/08/23 15:15:59;;;;;;;;;;;;;;;;;;5063782;28;1410;-76
2022/08/23 15:18:25;;;;;;;;;;;;;;;;;;5051234;28;1416;-76
2022/08/23 15:20:52;;;;;;;;;;;;;;;;;;5071525;28;1422;-76
2022/08/23 15:23:19;;;;;;;;;;;;;;;;;;5052656;28;1416;-76
2022/08/23 15:25:45;;;;;;;;;;;;;;;;;;5067977;28;1463;-76
2022/08/23 15:28:13;;;;;;;;;;;;;;;;;;5066657;28;1364;-76
2022/08/23 15:30:39;;;;;;;;;;;;;;;;;;5068872;28;1977;-76
2022/08/23 15:33:05;;;;;;;;;;;;;;;;;;5070174;28;1419;-76
2022/08/23 15:35:33;;;;;;;;;;;;;;;;;;5055930;28;1650;-76
2022/08/23 15:38:00;;;;;;;;;;;;;;;;;;5061562;28;1434;-76
2022/08/23 15:40:26;;;;;;;;;;;;;;;;;;5069454;28;1435;-76
2022/08/23 15:42:53;;;;;;;;;;;;;;;;;;5063642;28;1601;-76
2022/08/23 15:45:19;;;;;;;;;;;;;;;;;;5063219;28;1441;-76
2022/08/23 15:47:46;;;;;;;;;;;;;;;;;;5070952;28;1427;-76
2022/08/23 15:50:12;;;;;;;;;;;;;;;;;;5067133;28;1574;-77
2022/08/23 15:52:39;;;;;;;;;;;;;;;;;;5062934;28;1984;-76
2022/08/23 15:55:06;;;;;;;;;;;;;;;;;;5068024;28;1418;-76
2022/08/23 15:57:34;;;;;;;;;;;;;;;;;;5070179;28;1403;-77
2022/08/23 16:00:00;;;;;;;;;;;;;;;;;;5062071;28;1420;-76
2022/08/23 16:02:27;;;;;;;;;;;;;;;;;;5060335;28;1546;-77
2022/08/23 16:04:53;;;;;;;;;;;;;;;;;;5075278;28;1375;-76
2022/08/23 16:07:20;;;;;;;;;;;;;;;;;;5069216;28;1451;-76
2022/08/23 16:09:46;;;;;;;;;;;;;;;;;;5063950;28;1656;-76
2022/08/23 16:12:14;;;;;;;;;;;;;;;;;;5077429;28;1921;-76
2022/08/23 16:14:40;;;;;;;;;;;;;;;;;;5076257;28;1421;-76
2022/08/23 16:17:06;;;;;;;;;;;;;;;;;;5067890;28;1238;-76
2022/08/23 16:19:33;;;;;;;;;;;;;;;;;;5076558;28;1370;-76
2022/08/23 16:21:59;;;;;;;;;;;;;;;;;;5067726;28;1404;-76
2022/08/23 16:24:26;;;;;;;;;;;;;;;;;;5071245;28;1419;-76
2022/08/23 16:26:52;;;;;;;;;;;;;;;;;;5074170;28;1437;-77
2022/08/23 16:29:20;;;;;;;;;;;;;;;;;;5073705;28;1379;-78
2022/08/23 16:31:46;;;;;;;;;;;;;;;;;;5077919;28;1958;-78
2022/08/23 16:34:14;;;;;;;;;;;;;;;;;;5083295;28;1169;-79
2022/08/23 16:36:40;;;;;;;;;;;;;;;;;;5082895;28;782;-77
2022/08/23 16:39:07;;;;;;;;;;;;;;;;;;5072230;28;1587;-77
2022/08/23 16:41:33;;;;;;;;;;;;;;;;;;5097772;22;2102;-75
2022/08/23 16:43:59;;;;;;;;;;;;;;;;;;5096924;28;1061;-74
2022/08/23 16:46:27;;;;;;;;;;;;;;;;;;5097984;28;937;-74
2022/08/23 16:48:53;;;;;;;;;;;;;;;;;;5097825;28;854;-74
2022/08/23 16:51:20;;;;;;;;;;;;;;;;;;5079355;28;1976;-74
2022/08/23 16:53:47;;;;;;;;;;;;;;;;;;5084214;28;1665;-73
2022/08/23 16:56:14;;;;;;;;;;;;;;;;;;5088787;28;1102;-74
2022/08/23 16:58:40;;;;;;;;;;;;;;;;;;5097773;28;893;-73
2022/08/23 17:01:08;;;;;;;;;;;;;;;;;;5097748;28;1344;-74
2022/08/23 17:03:36;;;;;;;;;;;;;;;;;;5097642;28;1413;-73
2022/08/23 17:06:02;;;;;;;;;;;;;;;;;;5079608;28;1238;-74
2022/08/23 17:08:29;;;;;;;;;;;;;;;;;;5097875;28;1106;-73
2022/08/23 17:10:55;;;;;;;;;;;;;;;;;;5097450;28;1277;-73
2022/08/23 17:13:21;;;;;;;;;;;;;;;;;;5096601;28;2012;-73
2022/08/23 17:15:47;;;;;;;;;;;;;;;;;;5076297;28;1238;-73
2022/08/23 17:18:13;;;;;;;;;;;;;;;;;;5088399;28;1415;-73
2022/08/23 17:20:41;;;;;;;;;;;;;;;;;;5071479;28;1353;-74
2022/08/23 17:23:07;;;;;;;;;;;;;;;;;;5080256;28;1438;-74
2022/08/23 17:25:34;;;;;;;;;;;;;;;;;;5080605;28;1430;-74
2022/08/23 17:28:00;;;;;;;;;;;;;;;;;;5058491;28;1405;-73
2022/08/23 17:30:28;;;;;;;;;;;;;;;;;;5057774;28;1773;-73